Time;durP1;ratioP1;P1;durP2;ratioP2;P2;SDS_P1;SDS_P2;PMS_P1;PMS_P2;Temp;Humidity;BMP_temperature;BMP_pressure;BME280_temperature;BME280_humidity;BME280_pressure;Samples;Min_cycle;Max_cycle;Signal;HPM_P1;HPM_P2
2022/05/19 00:01:04;;;;;;;0.10;0.00;;;20.40;99.90;;;;;;5062177;28;20467;-89
2022/05/19 00:03:33;;;;;;;0.10;0.10;;;20.40;99.90;;;;;;5063473;28;20480;-87
2022/05/19 00:05:58;;;;;;;0.10;0.00;;;20.40;99.90;;;;;;5062738;28;20445;-89
2022/05/19 00:08:24;;;;;;;0.10;0.10;;;20.40;99.90;;;;;;5047086;28;20447;-88
2022/05/19 00:10:51;;;;;;;0.10;0.00;;;20.40;99.90;;;;;;5067218;28;20217;-93
2022/05/19 00:13:16;;;;;;;0.10;0.10;;;20.40;99.90;;;;;;5065308;28;20448;-89
2022/05/19 00:15:42;;;;;;;0.10;0.00;;;20.40;99.90;;;;;;5059197;28;20521;-89
2022/05/19 00:18:08;;;;;;;0.10;0.00;;;20.40;99.90;;;;;;5049715;28;20198;-88
2022/05/19 00:20:34;;;;;;;0.10;0.10;;;20.30;99.90;;;;;;5062356;28;20442;-90
2022/05/19 00:22:59;;;;;;;0.10;0.10;;;20.30;99.90;;;;;;5068512;28;20217;-88
2022/05/19 00:25:25;;;;;;;0.10;0.00;;;20.30;99.90;;;;;;5062360;28;20217;-89
2022/05/19 00:27:51;;;;;;;0.07;0.00;;;20.30;99.90;;;;;;5046669;28;20185;-90
2022/05/19 00:30:16;;;;;;;0.10;0.10;;;20.30;99.90;;;;;;5060761;28;20680;-87
2022/05/19 00:32:41;;;;;;;0.07;0.00;;;20.30;99.90;;;;;;5065029;28;20200;-88
2022/05/19 00:35:07;;;;;;;0.10;0.00;;;20.30;99.90;;;;;;5065573;28;20178;-88
2022/05/19 00:37:33;;;;;;;0.10;0.10;;;20.20;99.90;;;;;;5044853;28;20194;-88
2022/05/19 00:39:59;;;;;;;0.10;0.00;;;20.20;99.90;;;;;;5046078;28;20470;-88
2022/05/19 00:45:10;;;;;;;0.10;0.00;;;20.20;99.90;;;;;;5059009;28;20262;-87
2022/05/19 00:47:41;;;;;;;0.10;0.10;;;20.20;99.90;;;;;;5064390;28;20493;-88
2022/05/19 00:50:16;;;;;;;0.10;0.10;;;20.10;99.90;;;;;;5068620;28;20547;-90
2022/05/19 00:52:45;;;;;;;0.10;0.10;;;20.10;99.90;;;;;;5049080;28;20435;-87
2022/05/19 00:55:13;;;;;;;0.10;0.10;;;20.00;99.90;;;;;;5058644;28;20463;-88
2022/05/19 00:57:44;;;;;;;0.00;0.00;;;20.00;99.90;;;;;;5061130;28;20443;-88
2022/05/19 01:00:13;;;;;;;0.10;0.10;;;20.10;99.90;;;;;;5065066;28;20529;-88
2022/05/19 01:02:42;;;;;;;0.10;0.10;;;20.00;99.90;;;;;;5067741;28;20483;-91
2022/05/19 01:05:17;;;;;;;0.07;0.00;;;20.00;99.90;;;;;;5065271;28;22271;-89
2022/05/19 01:08:16;;;;;;;0.07;0.00;;;19.90;99.90;;;;;;5066425;28;20451;-87
2022/05/19 01:10:44;;;;;;;0.10;0.10;;;19.90;99.90;;;;;;5065562;28;20523;-88
2022/05/19 01:13:11;;;;;;;0.10;0.10;;;19.80;99.90;;;;;;5058316;28;20957;-87
2022/05/19 01:15:40;;;;;;;0.10;0.00;;;19.80;99.90;;;;;;5063888;28;20450;-87
2022/05/19 01:18:07;;;;;;;0.10;0.10;;;19.70;99.90;;;;;;5062657;28;20994;-87
2022/05/19 01:20:34;;;;;;;0.10;0.00;;;19.70;99.90;;;;;;5060007;28;20529;-87
2022/05/19 01:23:10;;;;;;;0.10;0.10;;;19.80;99.90;;;;;;5061774;28;20475;-87
2022/05/19 01:26:12;;;;;;;0.10;0.00;;;19.70;99.90;;;;;;5061950;28;20431;-88
2022/05/19 01:28:38;;;;;;;0.10;0.00;;;19.70;99.90;;;;;;5056222;28;20456;-87
2022/05/19 01:31:03;;;;;;;0.10;0.00;;;19.70;99.90;;;;;;5062170;28;20465;-87
2022/05/19 01:33:28;;;;;;;0.10;0.10;;;19.70;99.90;;;;;;5064906;28;20270;-87
2022/05/19 01:35:54;;;;;;;0.10;0.00;;;19.70;99.90;;;;;;5061529;28;20185;-88
2022/05/19 01:38:32;;;;;;;0.10;0.00;;;19.60;99.90;;;;;;5067129;28;21044;-87
2022/05/19 01:41:10;;;;;;;0.10;0.00;;;19.60;99.90;;;;;;5064765;28;20457;-88
2022/05/19 01:44:13;;;;;;;0.10;0.10;;;19.50;99.90;;;;;;5046664;28;20488;-87
2022/05/19 01:46:40;;;;;;;0.10;0.10;;;19.40;99.90;;;;;;5059806;28;20438;-86
2022/05/19 01:49:26;;;;;;;0.10;0.00;;;19.40;99.90;;;;;;5067637;28;20955;-87
2022/05/19 01:51:58;;;;;;;0.10;0.10;;;19.40;99.90;;;;;;5063541;28;20440;-87
2022/05/19 01:54:30;;;;;;;0.10;0.10;;;19.30;99.90;;;;;;5066124;28;20444;-87
2022/05/19 01:57:04;;;;;;;0.10;0.00;;;19.20;99.90;;;;;;5061322;28;20542;-86
2022/05/19 01:59:35;;;;;;;0.10;0.10;;;19.10;99.90;;;;;;5066137;28;20469;-86
2022/05/19 02:02:20;;;;;;;0.07;0.00;;;19.20;99.90;;;;;;5060592;28;20484;-86
2022/05/19 02:04:57;;;;;;;0.10;0.10;;;19.20;99.90;;;;;;5057024;28;20534;-87
2022/05/19 02:07:24;;;;;;;0.10;0.10;;;19.10;99.90;;;;;;5066609;28;20534;-87
2022/05/19 02:09:55;;;;;;;0.10;0.10;;;19.20;99.90;;;;;;5062203;28;20428;-86
2022/05/19 02:12:21;;;;;;;0.10;0.00;;;19.00;99.90;;;;;;5045890;28;20436;-86
2022/05/19 02:14:55;;;;;;;0.10;0.00;;;19.00;99.90;;;;;;5066096;28;20439;-87
2022/05/19 02:17:23;;;;;;;0.10;0.10;;;19.00;99.90;;;;;;5066600;28;20471;-87
2022/05/19 02:19:56;;;;;;;0.10;0.10;;;19.00;99.90;;;;;;5066463;28;20447;-87
2022/05/19 02:22:25;;;;;;;0.10;0.10;;;19.00;99.90;;;;;;5064900;28;20562;-86
2022/05/19 02:24:58;;;;;;;0.10;0.00;;;18.90;99.90;;;;;;5061865;28;21026;-87
2022/05/19 02:27:38;;;;;;;0.10;0.10;;;18.90;99.90;;;;;;5069056;28;20444;-87
2022/05/19 02:30:11;;;;;;;0.10;0.10;;;18.70;99.90;;;;;;5048434;28;20451;-87
2022/05/19 02:32:37;;;;;;;0.10;0.00;;;18.50;99.90;;;;;;5064495;28;20444;-87
2022/05/19 02:35:05;;;;;;;0.10;0.10;;;18.60;99.90;;;;;;5068786;28;20448;-86
2022/05/19 02:37:31;;;;;;;0.10;0.10;;;18.50;99.90;;;;;;5067783;28;20441;-87
2022/05/19 02:39:57;;;;;;;0.10;0.10;;;18.50;99.90;;;;;;5064735;28;21019;-86
2022/05/19 02:42:22;;;;;;;0.10;0.10;;;18.50;99.90;;;;;;5047746;28;20226;-87
2022/05/19 02:44:48;;;;;;;0.10;0.07;;;18.30;99.90;;;;;;5069685;28;20925;-86
2022/05/19 02:47:13;;;;;;;0.10;0.10;;;18.40;99.90;;;;;;5068061;28;20190;-86
2022/05/19 02:49:39;;;;;;;0.10;0.00;;;18.50;99.90;;;;;;5051888;28;20539;-87
2022/05/19 02:52:05;;;;;;;0.10;0.10;;;18.40;99.90;;;;;;5043263;28;20182;-86
2022/05/19 02:54:30;;;;;;;0.10;0.10;;;18.30;99.90;;;;;;5062333;28;20723;-87
2022/05/19 02:56:56;;;;;;;0.10;0.10;;;18.10;99.90;;;;;;5047188;28;21008;-86
2022/05/19 02:59:21;;;;;;;0.10;0.00;;;18.00;99.90;;;;;;5065697;28;20197;-86
2022/05/19 03:01:46;;;;;;;0.10;0.07;;;17.90;99.90;;;;;;5066468;28;20697;-86
2022/05/19 03:04:12;;;;;;;0.10;0.10;;;17.90;99.90;;;;;;5050870;28;20186;-87
2022/05/19 03:06:38;;;;;;;0.00;0.00;;;17.80;99.90;;;;;;5067356;28;20200;-86
2022/05/19 03:09:04;;;;;;;0.00;0.00;;;17.70;99.90;;;;;;5057809;28;20563;-86
2022/05/19 03:11:30;;;;;;;0.10;0.10;;;17.70;99.90;;;;;;5068117;28;20183;-86
2022/05/19 03:13:55;;;;;;;0.10;0.10;;;17.90;99.90;;;;;;5067094;28;20889;-87
2022/05/19 03:16:21;;;;;;;0.00;0.00;;;17.90;99.90;;;;;;5065937;28;20765;-86
2022/05/19 03:18:47;;;;;;;0.10;0.10;;;17.70;99.90;;;;;;5045892;28;20189;-86
2022/05/19 03:21:12;;;;;;;0.10;0.10;;;17.80;99.90;;;;;;5052687;28;20564;-86
2022/05/19 03:23:37;;;;;;;0.10;0.10;;;17.60;99.90;;;;;;5066576;28;20225;-86
2022/05/19 03:26:03;;;;;;;0.10;0.00;;;17.60;99.90;;;;;;5067585;28;20558;-85
2022/05/19 03:28:29;;;;;;;0.10;0.10;;;17.50;99.90;;;;;;5067334;28;20261;-86
2022/05/19 03:30:54;;;;;;;0.10;0.10;;;17.50;99.90;;;;;;5034534;28;20213;-86
2022/05/19 03:33:20;;;;;;;0.00;0.00;;;17.50;99.90;;;;;;5038496;28;20293;-86
2022/05/19 03:35:54;;;;;;;0.10;0.00;;;17.40;99.90;;;;;;5066209;28;20190;-86
2022/05/19 03:38:19;;;;;;;0.00;0.00;;;17.40;99.90;;;;;;5063750;28;20190;-86
2022/05/19 03:40:45;;;;;;;0.10;0.10;;;17.50;99.90;;;;;;5041508;28;20444;-87
2022/05/19 03:43:10;;;;;;;0.10;0.10;;;17.50;99.90;;;;;;5064357;28;20661;-87
2022/05/19 03:45:36;;;;;;;0.00;0.00;;;17.50;99.90;;;;;;5064716;28;20197;-86
2022/05/19 03:48:01;;;;;;;0.00;0.00;;;17.40;99.90;;;;;;5069969;28;20223;-86
2022/05/19 03:50:27;;;;;;;0.00;0.00;;;17.20;99.90;;;;;;5050597;28;20916;-86
2022/05/19 03:52:53;;;;;;;0.10;0.10;;;17.30;99.90;;;;;;5066683;28;20189;-86
2022/05/19 03:55:19;;;;;;;0.00;0.00;;;17.20;99.90;;;;;;5065850;28;20181;-86
2022/05/19 03:57:46;;;;;;;0.10;0.10;;;17.30;99.90;;;;;;5041256;28;20452;-87
2022/05/19 04:00:12;;;;;;;0.10;0.10;;;17.50;99.90;;;;;;5058802;28;21085;-87
2022/05/19 04:02:38;;;;;;;0.10;0.10;;;17.50;99.90;;;;;;5061914;28;20504;-86
2022/05/19 04:05:05;;;;;;;0.10;0.10;;;17.60;99.90;;;;;;5065577;28;20439;-87
2022/05/19 04:07:31;;;;;;;0.10;0.10;;;17.60;99.90;;;;;;5043842;28;20450;-86
2022/05/19 04:09:56;;;;;;;0.10;0.10;;;17.60;99.90;;;;;;5047197;28;20531;-86
2022/05/19 04:12:22;;;;;;;0.10;0.10;;;17.60;99.90;;;;;;5066253;28;20190;-86
2022/05/19 04:14:49;;;;;;;0.10;0.10;;;17.50;99.90;;;;;;5060071;28;20251;-85
2022/05/19 04:17:15;;;;;;;0.10;0.10;;;17.40;99.90;;;;;;5062040;28;20182;-85
2022/05/19 04:19:42;;;;;;;0.10;0.10;;;17.50;99.90;;;;;;5049972;28;20471;-86
2022/05/19 04:22:07;;;;;;;0.07;0.00;;;17.60;99.90;;;;;;5063008;28;20484;-86
2022/05/19 04:24:33;;;;;;;0.10;0.10;;;17.70;99.90;;;;;;5046471;28;20251;-85
2022/05/19 04:26:58;;;;;;;0.10;0.10;;;17.70;99.90;;;;;;5063369;28;20186;-86
2022/05/19 04:29:24;;;;;;;0.10;0.10;;;17.60;99.90;;;;;;5063599;28;20420;-86
2022/05/19 04:31:49;;;;;;;0.10;0.10;;;17.70;99.90;;;;;;5056555;28;20181;-86
2022/05/19 04:34:15;;;;;;;0.10;0.10;;;17.70;99.90;;;;;;5049036;28;20605;-86
2022/05/19 04:36:40;;;;;;;0.00;0.00;;;17.80;99.90;;;;;;5056690;28;20199;-85
2022/05/19 04:39:06;;;;;;;0.10;0.10;;;17.90;99.90;;;;;;5045960;28;20217;-86
2022/05/19 04:41:31;;;;;;;0.00;0.00;;;17.90;99.90;;;;;;5060390;28;20276;-86
2022/05/19 04:43:57;;;;;;;0.10;0.10;;;18.10;99.90;;;;;;5060382;28;20224;-86
2022/05/19 04:46:23;;;;;;;0.10;0.10;;;18.10;99.90;;;;;;5060234;28;20186;-86
2022/05/19 04:48:48;;;;;;;0.10;0.10;;;18.20;99.90;;;;;;5065597;28;20192;-86
2022/05/19 04:51:14;;;;;;;0.00;0.00;;;18.30;99.90;;;;;;5035760;28;20193;-86
2022/05/19 04:53:40;;;;;;;0.10;0.10;;;18.30;99.90;;;;;;5066442;28;20181;-87
2022/05/19 04:56:06;;;;;;;0.00;0.00;;;18.30;99.90;;;;;;5065859;28;20661;-86
2022/05/19 04:58:32;;;;;;;0.20;0.20;;;18.30;99.90;;;;;;5064394;28;20451;-88
2022/05/19 05:00:57;;;;;;;0.10;0.10;;;18.20;99.90;;;;;;5040887;28;20233;-86
2022/05/19 05:03:23;;;;;;;0.10;0.00;;;18.30;99.90;;;;;;5038843;28;21030;-86
2022/05/19 05:05:48;;;;;;;0.07;0.07;;;18.30;99.90;;;;;;5044914;28;20186;-87
2022/05/19 05:08:14;;;;;;;0.07;0.00;;;18.30;99.90;;;;;;5062427;28;20276;-86
2022/05/19 05:10:40;;;;;;;0.07;0.00;;;18.30;99.90;;;;;;5064074;28;20232;-87
2022/05/19 05:13:08;;;;;;;0.10;0.10;;;18.40;99.90;;;;;;5065087;28;20378;-88
2022/05/19 05:15:34;;;;;;;0.10;0.10;;;18.40;99.90;;;;;;5062152;28;20182;-86
2022/05/19 05:18:00;;;;;;;0.10;0.10;;;18.30;99.90;;;;;;5065233;28;20478;-88
2022/05/19 05:20:26;;;;;;;0.10;0.10;;;18.30;99.90;;;;;;5047043;28;20444;-86
2022/05/19 05:22:51;;;;;;;0.10;0.10;;;18.30;99.90;;;;;;5067600;28;20221;-87
2022/05/19 05:25:17;;;;;;;0.10;0.10;;;18.40;99.90;;;;;;5066169;28;20617;-86
2022/05/19 05:27:43;;;;;;;0.10;0.10;;;18.50;99.90;;;;;;5063654;28;20235;-88
2022/05/19 05:30:11;;;;;;;0.10;0.10;;;18.60;99.90;;;;;;5067639;28;20186;-88
2022/05/19 05:32:36;;;;;;;0.10;0.10;;;18.70;99.90;;;;;;5065609;28;20190;-86
2022/05/19 05:35:04;;;;;;;0.10;0.07;;;18.70;99.90;;;;;;5066353;28;20888;-85
2022/05/19 05:37:29;;;;;;;0.10;0.10;;;18.80;99.90;;;;;;5044712;28;20193;-88
2022/05/19 05:39:55;;;;;;;0.10;0.10;;;18.90;99.90;;;;;;5046758;28;20551;-87
2022/05/19 05:42:20;;;;;;;0.10;0.10;;;18.90;99.90;;;;;;5068461;28;20232;-88
2022/05/19 05:44:46;;;;;;;0.10;0.10;;;19.00;99.90;;;;;;5067408;28;20296;-87
2022/05/19 05:47:11;;;;;;;0.10;0.10;;;19.10;99.90;;;;;;5049714;28;20212;-88
2022/05/19 05:49:37;;;;;;;0.10;0.10;;;19.10;99.90;;;;;;5067814;28;20182;-89
2022/05/19 05:52:04;;;;;;;0.10;0.10;;;19.20;99.90;;;;;;5052457;28;20260;-89
2022/05/19 05:54:29;;;;;;;0.10;0.10;;;19.20;99.90;;;;;;5051998;28;20193;-89
2022/05/19 05:56:55;;;;;;;0.10;0.10;;;19.30;99.90;;;;;;5072081;28;20992;-87
2022/05/19 05:59:20;;;;;;;0.10;0.10;;;19.30;99.90;;;;;;5065960;28;20198;-88
2022/05/19 06:01:46;;;;;;;0.10;0.10;;;19.30;99.90;;;;;;5070217;28;20201;-90
2022/05/19 06:04:11;;;;;;;0.10;0.10;;;19.40;99.90;;;;;;5052053;28;20221;-87
2022/05/19 06:06:37;;;;;;;0.10;0.10;;;19.40;99.90;;;;;;5070468;28;20186;-87
2022/05/19 06:09:03;;;;;;;0.10;0.10;;;19.50;99.90;;;;;;5070581;28;20646;-88
2022/05/19 06:11:28;;;;;;;0.07;0.00;;;19.50;99.90;;;;;;5051155;28;20571;-88
2022/05/19 06:13:54;;;;;;;0.07;0.00;;;19.60;99.90;;;;;;5047480;28;20264;-88
2022/05/19 06:16:19;;;;;;;0.10;0.10;;;19.60;99.90;;;;;;5047978;28;20189;-88
2022/05/19 06:18:45;;;;;;;0.10;0.10;;;19.60;99.90;;;;;;5042074;28;20196;-88
2022/05/19 06:21:11;;;;;;;0.10;0.10;;;19.70;99.90;;;;;;5051692;28;20222;-88
2022/05/19 06:23:36;;;;;;;0.10;0.10;;;19.80;99.90;;;;;;5046967;28;20225;-89
2022/05/19 06:26:03;;;;;;;0.10;0.10;;;19.80;99.90;;;;;;5063622;28;20212;-88
2022/05/19 06:28:29;;;;;;;0.10;0.00;;;19.80;99.90;;;;;;5063249;28;20657;-89
2022/05/19 06:30:55;;;;;;;0.10;0.10;;;19.80;99.90;;;;;;5062404;28;20432;-87
2022/05/19 06:33:22;;;;;;;0.10;0.00;;;19.80;99.90;;;;;;5051398;28;20182;-87
2022/05/19 06:35:48;;;;;;;0.10;0.00;;;19.80;99.90;;;;;;5061994;28;20436;-89
2022/05/19 06:38:14;;;;;;;0.10;0.10;;;19.80;99.90;;;;;;5066023;28;20459;-87
2022/05/19 06:40:40;;;;;;;0.10;0.10;;;19.80;99.90;;;;;;5044190;28;20178;-89
2022/05/19 06:43:11;;;;;;;0.10;0.00;;;20.10;99.90;;;;;;5063329;28;20480;-87
2022/05/19 06:45:36;;;;;;;0.10;0.00;;;20.40;99.90;;;;;;5045369;28;20955;-86
2022/05/19 06:48:02;;;;;;;0.10;0.00;;;20.50;99.90;;;;;;5067329;28;20447;-87
2022/05/19 06:50:29;;;;;;;0.10;0.00;;;20.70;99.90;;;;;;5071490;28;20396;-87
2022/05/19 06:53:01;;;;;;;0.10;0.00;;;20.90;99.90;;;;;;5070822;28;20460;-92
2022/05/19 06:55:28;;;;;;;0.10;0.00;;;21.10;99.90;;;;;;5068128;28;20447;-88
2022/05/19 06:57:54;;;;;;;0.10;0.10;;;21.40;99.90;;;;;;5068535;28;20444;-92
2022/05/19 07:00:22;;;;;;;0.10;0.00;;;21.60;99.90;;;;;;5074882;28;20527;-96
2022/05/19 07:02:50;;;;;;;0.10;0.00;;;21.70;99.90;;;;;;5072675;28;20245;-96
2022/05/19 07:05:18;;;;;;;0.10;0.00;;;21.60;99.90;;;;;;5080597;28;20494;-96
2022/05/19 07:07:46;;;;;;;0.10;0.00;;;21.70;99.90;;;;;;5063147;28;20957;-95
2022/05/19 07:10:17;;;;;;;0.10;0.00;;;21.70;99.90;;;;;;5045841;28;20495;-96
2022/05/19 07:12:43;;;;;;;0.10;0.00;;;21.70;99.90;;;;;;5039435;28;20443;-92
2022/05/19 07:15:11;;;;;;;0.10;0.00;;;21.60;99.90;;;;;;5045282;28;20536;-93
2022/05/19 07:17:37;;;;;;;0.10;0.00;;;21.50;99.90;;;;;;5039957;28;20313;-95
2022/05/19 07:22:47;;;;;;;0.10;0.00;;;21.80;99.90;;;;;;5071560;28;20216;-93
2022/05/19 07:25:12;;;;;;;0.10;0.00;;;22.00;99.90;;;;;;5073096;28;20452;-95
2022/05/19 07:27:38;;;;;;;0.10;0.00;;;21.90;99.90;;;;;;5054746;28;20250;-96
2022/05/19 07:30:05;;;;;;;0.10;0.00;;;21.90;99.90;;;;;;5072095;28;20186;-95
2022/05/19 07:32:34;;;;;;;0.10;0.00;;;21.90;99.90;;;;;;5097619;23;20278;-96
2022/05/19 07:34:59;;;;;;;0.10;0.00;;;22.10;99.90;;;;;;5075224;28;21025;-95
2022/05/19 07:37:25;;;;;;;0.10;0.00;;;22.20;99.90;;;;;;5067131;28;20554;-96
2022/05/19 07:39:52;;;;;;;0.10;0.00;;;22.40;99.90;;;;;;5081626;28;20224;-84
2022/05/19 07:42:18;;;;;;;0.10;0.00;;;22.30;99.90;;;;;;5089094;28;20489;-84
2022/05/19 07:44:44;;;;;;;0.10;0.00;;;22.60;99.90;;;;;;5067304;28;20443;-85
2022/05/19 07:47:09;;;;;;;0.10;0.00;;;22.70;99.90;;;;;;5085635;28;20205;-83
2022/05/19 07:49:36;;;;;;;0.10;0.00;;;22.80;99.90;;;;;;5084434;28;20496;-84
2022/05/19 07:52:02;;;;;;;0.10;0.00;;;22.90;99.90;;;;;;5089931;28;20213;-82
2022/05/19 07:54:28;;;;;;;0.10;0.00;;;22.90;99.90;;;;;;5082799;28;20539;-82
2022/05/19 07:56:55;;;;;;;0.10;0.00;;;23.10;99.90;;;;;;5068096;28;20566;-93
2022/05/19 07:59:20;;;;;;;0.10;0.00;;;23.10;99.90;;;;;;5081543;28;20288;-85
2022/05/19 08:01:46;;;;;;;0.10;0.07;;;23.10;99.90;;;;;;5083806;28;20518;-83
2022/05/19 08:04:15;;;;;;;0.10;0.00;;;23.30;99.90;;;;;;5069822;28;20185;-84
2022/05/19 08:06:41;;;;;;;0.10;0.00;;;23.40;99.90;;;;;;5080417;28;20446;-85
2022/05/19 08:11:53;;;;;;;0.10;0.00;;;23.70;99.90;;;;;;5085885;28;20505;-93
2022/05/19 08:17:03;;;;;;;0.10;0.00;;;24.10;99.90;;;;;;5075087;28;20485;-83
2022/05/19 08:19:30;;;;;;;0.10;0.00;;;24.40;99.90;;;;;;5069625;28;20424;-89
2022/05/19 08:21:56;;;;;;;0.10;0.00;;;24.10;99.90;;;;;;5086090;28;20549;-86
2022/05/19 08:24:24;;;;;;;0.10;0.00;;;23.80;99.90;;;;;;5086684;28;20533;-89
2022/05/19 08:26:50;;;;;;;0.10;0.00;;;24.10;99.90;;;;;;5088761;28;20439;-90
2022/05/19 08:29:18;;;;;;;0.10;0.00;;;24.40;99.90;;;;;;5070002;28;20809;-90
2022/05/19 08:31:45;;;;;;;0.10;0.00;;;24.70;99.90;;;;;;5076647;28;20440;-83
2022/05/19 08:34:11;;;;;;;0.10;0.00;;;24.60;99.90;;;;;;5080538;28;20458;-89
2022/05/19 08:36:37;;;;;;;0.10;0.00;;;24.60;99.90;;;;;;5078582;28;20439;-89
2022/05/19 08:39:02;;;;;;;0.10;0.00;;;25.10;99.90;;;;;;5070842;28;20526;-81
2022/05/19 08:41:36;;;;;;;0.10;0.00;;;25.60;99.90;;;;;;5065933;28;20486;-85
2022/05/19 08:44:14;;;;;;;0.10;0.00;;;25.90;99.90;;;;;;5051875;28;20213;-88
2022/05/19 08:46:45;;;;;;;0.10;0.00;;;25.40;99.90;;;;;;5061967;28;20994;-82
2022/05/19 08:49:36;;;;;;;0.10;0.00;;;25.10;99.90;;;;;;5087557;28;20852;-82
2022/05/19 08:52:17;;;;;;;0.10;0.00;;;25.00;99.90;;;;;;5084232;28;20443;-87
2022/05/19 08:54:46;;;;;;;0.10;0.00;;;24.70;99.90;;;;;;5080661;28;21252;-86
2022/05/19 08:57:21;;;;;;;0.10;0.00;;;24.50;99.90;;;;;;5067842;28;20807;-88
2022/05/19 08:59:50;;;;;;;0.10;0.00;;;24.50;99.90;;;;;;5083177;28;20443;-82
2022/05/19 09:02:37;;;;;;;0.10;0.00;;;24.70;99.90;;;;;;5085773;28;20470;-85
2022/05/19 09:05:14;;;;;;;0.10;0.00;;;24.70;99.90;;;;;;5067272;28;20455;-88
2022/05/19 09:07:59;;;;;;;0.10;0.00;;;24.80;99.90;;;;;;5091470;28;20459;-93
2022/05/19 09:10:48;;;;;;;0.10;0.00;;;25.20;99.90;;;;;;5076389;28;20447;-95
2022/05/19 09:13:29;;;;;;;0.10;0.00;;;25.20;99.90;;;;;;5072028;28;20455;-90
2022/05/19 09:15:55;;;;;;;0.10;0.00;;;25.40;99.90;;;;;;5075071;28;20438;-89
2022/05/19 09:18:34;;;;;;;0.10;0.00;;;25.30;99.90;;;;;;5085257;28;20454;-95
2022/05/19 09:21:02;;;;;;;0.10;0.00;;;25.40;99.90;;;;;;5086167;28;20569;-89
2022/05/19 09:23:28;;;;;;;0.10;0.00;;;25.60;99.90;;;;;;5066395;28;20581;-92
2022/05/19 09:26:04;;;;;;;0.10;0.00;;;25.70;99.90;;;;;;5068419;28;20435;-95
2022/05/19 09:28:30;;;;;;;0.00;0.00;;;25.70;99.90;;;;;;5094945;28;20177;-94
2022/05/19 09:30:56;;;;;;;0.00;0.00;;;26.00;99.90;;;;;;5095082;28;20430;-91
2022/05/19 09:33:47;;;;;;;0.00;0.00;;;26.20;99.90;;;;;;5075519;28;20502;-92
2022/05/19 09:36:14;;;;;;;0.00;0.00;;;26.30;99.90;;;;;;5067641;28;20521;-88
2022/05/19 09:38:48;;;;;;;0.00;0.00;;;26.00;99.90;;;;;;5071227;28;20656;-93
2022/05/19 09:41:28;;;;;;;0.00;0.00;;;26.20;99.90;;;;;;5081124;28;22109;-86
2022/05/19 09:43:58;;;;;;;0.00;0.00;;;26.30;99.90;;;;;;5082229;28;20463;-87
2022/05/19 09:46:27;;;;;;;0.00;0.00;;;26.50;99.90;;;;;;5075387;28;20516;-95
2022/05/19 09:49:01;;;;;;;0.00;0.00;;;26.60;99.90;;;;;;5077341;28;20493;-96
2022/05/19 09:51:38;;;;;;;0.10;0.10;;;27.10;99.90;;;;;;5075411;28;20435;-96
2022/05/19 09:54:04;;;;;;;0.00;0.00;;;27.30;99.90;;;;;;5092589;28;20442;-96
2022/05/19 09:56:39;;;;;;;0.00;0.00;;;27.40;99.90;;;;;;5065430;28;20505;-95
2022/05/19 09:59:16;;;;;;;0.00;0.00;;;27.50;99.90;;;;;;5077351;28;20514;-95
2022/05/19 10:01:45;;;;;;;0.00;0.00;;;27.60;99.90;;;;;;5078438;28;20503;-96
2022/05/19 10:04:24;;;;;;;0.10;0.10;;;27.80;99.90;;;;;;5092133;28;20447;-96
2022/05/19 10:06:55;;;;;;;0.00;0.00;;;27.50;99.90;;;;;;5089499;28;20440;-95
2022/05/19 10:09:30;;;;;;;0.00;0.00;;;27.70;99.90;;;;;;5084986;28;20451;-96
2022/05/19 10:12:11;;;;;;;0.00;0.00;;;27.70;99.90;;;;;;5069051;28;20432;-89
2022/05/19 10:14:40;;;;;;;0.00;0.00;;;27.80;99.90;;;;;;5093992;28;20427;-83
2022/05/19 10:17:36;;;;;;;0.00;0.00;;;27.50;99.90;;;;;;5076459;28;20430;-85
2022/05/19 10:20:08;;;;;;;0.00;0.00;;;27.50;99.90;;;;;;5076051;28;20427;-84
2022/05/19 10:22:48;;;;;;;0.00;0.00;;;27.20;99.90;;;;;;5072704;28;20875;-90
2022/05/19 10:25:52;;;;;;;0.00;0.00;;;26.90;99.90;;;;;;5072488;28;20456;-93
2022/05/19 10:31:57;;;;;;;0.00;0.00;;;27.00;99.90;;;;;;5086697;28;20470;-93
2022/05/19 10:34:38;;;;;;;0.00;0.00;;;27.30;99.90;;;;;;5038308;28;20461;-95
2022/05/19 10:37:30;;;;;;;0.00;0.00;;;27.50;99.90;;;;;;5078502;28;20470;-95
2022/05/19 10:40:18;;;;;;;0.00;0.00;;;27.40;99.90;;;;;;5063912;28;21021;-89
2022/05/19 10:43:00;;;;;;;0.00;0.00;;;27.20;99.90;;;;;;5086075;28;20582;-95
2022/05/19 10:45:40;;;;;;;0.00;0.00;;;27.20;99.90;;;;;;5078786;28;20530;-95
2022/05/19 10:48:12;;;;;;;0.00;0.00;;;27.10;99.90;;;;;;5095916;28;20570;-96
2022/05/19 10:51:02;;;;;;;0.00;0.00;;;27.30;99.90;;;;;;5070406;28;20445;-92
2022/05/19 10:53:33;;;;;;;0.00;0.00;;;27.00;99.90;;;;;;5063045;28;20540;-91
2022/05/19 10:56:26;;;;;;;0.00;0.00;;;26.70;99.90;;;;;;5095514;28;20439;-92
2022/05/19 10:59:15;;;;;;;0.00;0.00;;;26.80;99.90;;;;;;5094164;28;20443;-95
2022/05/19 11:01:41;;;;;;;0.00;0.00;;;26.50;99.90;;;;;;5080223;28;20424;-96
2022/05/19 11:04:49;;;;;;;0.00;0.00;;;26.80;99.90;;;;;;5082493;28;20479;-96
2022/05/19 11:07:47;;;;;;;0.00;0.00;;;26.90;99.90;;;;;;5058836;28;20261;-96
2022/05/19 11:10:38;;;;;;;0.00;0.00;;;27.10;99.90;;;;;;5066136;28;20435;-88
2022/05/19 11:13:09;;;;;;;0.00;0.00;;;27.40;99.90;;;;;;5070569;28;21009;-95
2022/05/19 11:16:12;;;;;;;0.00;0.00;;;27.60;99.90;;;;;;5092622;28;20436;-94
2022/05/19 11:18:54;;;;;;;0.00;0.00;;;27.70;99.90;;;;;;5087480;28;20612;-94
2022/05/19 11:21:27;;;;;;;0.00;0.00;;;27.50;99.90;;;;;;5075168;28;20439;-95
2022/05/19 11:24:10;;;;;;;0.00;0.00;;;27.60;99.90;;;;;;5074375;28;20483;-96
2022/05/19 11:26:38;;;;;;;0.00;0.00;;;27.80;99.90;;;;;;5084016;28;20476;-94
2022/05/19 11:29:16;;;;;;;0.00;0.00;;;28.00;99.90;;;;;;5094174;28;20435;-95
2022/05/19 11:31:51;;;;;;;0.00;0.00;;;28.10;99.90;;;;;;5079155;28;20446;-95
2022/05/19 11:34:55;;;;;;;0.00;0.00;;;28.30;99.90;;;;;;5064972;28;20493;-95
2022/05/19 11:37:30;;;;;;;0.00;0.00;;;28.10;99.90;;;;;;5087769;28;20480;-91
2022/05/19 11:40:23;;;;;;;0.00;0.00;;;27.80;99.90;;;;;;5076970;28;20443;-92
2022/05/19 11:43:03;;;;;;;0.00;0.00;;;27.80;99.90;;;;;;5064717;28;20499;-96
2022/05/19 11:45:51;;;;;;;0.00;0.00;;;28.00;99.90;;;;;;5066553;28;20466;-93
2022/05/19 11:57:18;;;;;;;0.00;0.00;;;28.40;99.90;;;;;;5099049;28;20439;-96
2022/05/19 11:59:50;;;;;;;0.00;0.00;;;28.80;99.90;;;;;;5077895;28;20457;-93
2022/05/19 12:02:22;;;;;;;0.00;0.00;;;29.10;99.90;;;;;;5061301;28;20510;-95
2022/05/19 12:04:52;;;;;;;0.00;0.00;;;29.10;99.90;;;;;;5056204;28;20454;-95
2022/05/19 12:07:36;;;;;;;0.00;0.00;;;29.20;99.90;;;;;;5086705;28;20430;-96
2022/05/19 12:10:01;;;;;;;0.00;0.00;;;29.00;99.90;;;;;;5062986;28;20862;-93
2022/05/19 12:12:36;;;;;;;0.00;0.00;;;29.00;99.90;;;;;;5064713;28;20489;-91
2022/05/19 12:15:21;;;;;;;0.00;0.00;;;28.20;99.90;;;;;;5069419;28;20218;-96
2022/05/19 12:17:53;;;;;;;0.10;0.10;;;28.10;99.90;;;;;;5066366;28;21563;-96
2022/05/19 12:20:33;;;;;;;0.00;0.00;;;28.50;99.90;;;;;;5073437;28;20543;-94
2022/05/19 12:23:18;;;;;;;0.00;0.00;;;27.90;99.90;;;;;;5067569;28;20475;-94
2022/05/19 12:25:48;;;;;;;0.00;0.00;;;27.80;99.90;;;;;;5066633;28;20431;-92
2022/05/19 12:28:14;;;;;;;0.00;0.00;;;27.70;99.90;;;;;;5085092;28;20446;-90
2022/05/19 12:33:36;;;;;;;0.00;0.00;;;27.60;99.90;;;;;;5084706;28;20277;-88
2022/05/19 12:36:12;;;;;;;0.00;0.00;;;27.50;99.90;;;;;;5070036;28;20454;-90
2022/05/19 12:38:43;;;;;;;0.00;0.00;;;26.80;99.90;;;;;;5090676;28;20499;-88
2022/05/19 12:41:31;;;;;;;0.00;0.00;;;26.70;99.90;;;;;;5067611;28;20439;-90
2022/05/19 12:44:17;;;;;;;0.00;0.00;;;27.00;99.90;;;;;;5066826;28;20516;-92
2022/05/19 12:46:45;;;;;;;0.00;0.00;;;27.00;99.90;;;;;;5067590;28;20446;-90
2022/05/19 12:49:17;;;;;;;0.00;0.00;;;26.90;99.90;;;;;;5056702;28;20456;-92
2022/05/19 12:51:53;;;;;;;0.00;0.00;;;26.70;99.90;;;;;;5064500;28;20478;-89
2022/05/19 12:54:20;;;;;;;0.10;0.00;;;26.70;99.90;;;;;;5070300;28;20545;-91
2022/05/19 12:56:46;;;;;;;0.00;0.00;;;26.50;99.90;;;;;;5085542;28;20438;-89
2022/05/19 12:59:48;;;;;;;0.07;0.00;;;26.30;99.90;;;;;;5087157;28;20450;-92
2022/05/19 13:02:30;;;;;;;0.10;0.00;;;26.00;99.90;;;;;;5075583;28;20557;-92
2022/05/19 13:05:05;;;;;;;0.00;0.00;;;26.00;99.90;;;;;;5073187;28;20486;-91
2022/05/19 13:07:41;;;;;;;0.10;0.00;;;25.90;99.90;;;;;;5086920;28;20912;-90
2022/05/19 13:10:23;;;;;;;0.10;0.00;;;25.70;99.90;;;;;;5068561;28;20438;-91
2022/05/19 13:12:59;;;;;;;0.10;0.00;;;25.70;99.90;;;;;;5085457;28;21181;-90
2022/05/19 13:15:28;;;;;;;0.10;0.00;;;25.60;99.90;;;;;;5070408;28;20439;-90
2022/05/19 13:17:56;;;;;;;0.10;0.00;;;25.30;99.90;;;;;;5086347;28;20441;-89
2022/05/19 13:20:29;;;;;;;0.10;0.00;;;25.20;99.90;;;;;;5083708;28;20451;-90
2022/05/19 13:23:02;;;;;;;0.10;0.00;;;25.00;99.90;;;;;;5082151;28;20476;-89
2022/05/19 13:25:31;;;;;;;0.10;0.00;;;25.00;99.90;;;;;;5082363;28;20636;-90
2022/05/19 13:30:58;;;;;;;0.10;0.00;;;25.10;99.90;;;;;;5082535;28;20449;-90
2022/05/19 13:33:35;;;;;;;0.10;0.00;;;25.10;99.90;;;;;;5082458;28;20480;-90
2022/05/19 13:36:06;;;;;;;0.07;0.00;;;24.90;99.90;;;;;;5075650;28;20193;-90